createdAt,value
2022-12-23T00:02:48.804Z,16.50
2022-12-23T00:08:10.453Z,17.70
2022-12-23T00:13:52.048Z,17.40
2022-12-23T00:19:14.071Z,16.90
2022-12-23T00:24:36.001Z,17.30
2022-12-23T00:29:57.502Z,18.10
2022-12-23T00:35:19.964Z,18.50
2022-12-23T00:40:59.956Z,17.80
2022-12-23T00:46:21.905Z,16.80
2022-12-23T00:51:43.813Z,15.10
2022-12-23T00:57:05.843Z,18.00
2022-12-23T01:02:46.437Z,18.40
2022-12-23T01:08:10.475Z,19.30
2022-12-23T01:13:33.032Z,17.70
2022-12-23T01:18:54.640Z,15.00
2022-12-23T01:24:17.169Z,15.50
2022-12-23T01:29:39.395Z,16.60
2022-12-23T01:35:01.324Z,20.20
2022-12-23T01:40:23.070Z,17.80
2022-12-23T01:45:45.331Z,17.30
2022-12-23T01:51:09.503Z,16.80
2022-12-23T01:56:35.626Z,17.10
2022-12-23T02:02:16.509Z,13.50
2022-12-23T02:07:56.953Z,16.20
2022-12-23T02:14:13.034Z,14.60
2022-12-23T02:19:52.777Z,10.70
2022-12-23T02:25:22.421Z,14.30
2022-12-23T02:30:50.638Z,14.00
2022-12-23T02:36:24.661Z,16.90
2022-12-23T02:42:04.435Z,14.60
2022-12-23T02:47:30.558Z,14.90
2022-12-23T02:52:52.609Z,14.40
2022-12-23T02:58:16.548Z,14.50
2022-12-23T03:03:38.943Z,14.60
2022-12-23T03:09:01.307Z,10.40
2022-12-23T03:14:34.930Z,10.50
2022-12-23T03:20:21.709Z,10.20
2022-12-23T03:25:59.277Z,12.70
2022-12-23T03:31:25.801Z,12.40
2022-12-23T03:36:57.591Z,13.30
2022-12-23T03:42:37.184Z,12.90
2022-12-23T03:48:07.123Z,17.10
2022-12-23T03:53:35.631Z,12.60
2022-12-23T03:59:00.240Z,17.00
2022-12-23T04:04:27.578Z,13.60
2022-12-23T04:09:51.617Z,13.90
2022-12-23T04:15:13.645Z,12.50
2022-12-23T04:20:35.269Z,11.80
2022-12-23T04:25:57.276Z,11.10
2022-12-23T04:31:19.248Z,12.60
2022-12-23T04:36:41.158Z,15.80
2022-12-23T04:42:03.091Z,17.50
2022-12-23T04:47:24.716Z,21.70
2022-12-23T04:52:46.352Z,16.50
2022-12-23T04:58:08.474Z,16.60
2022-12-23T05:03:30.905Z,17.70
2022-12-23T05:08:52.736Z,16.20
2022-12-23T05:14:14.973Z,18.50
2022-12-23T05:19:37.095Z,18.50
2022-12-23T05:24:58.923Z,17.00
2022-12-23T05:30:20.958Z,19.50
2022-12-23T05:35:42.881Z,19.80
2022-12-23T05:41:05.216Z,20.30
2022-12-23T05:46:27.406Z,13.70
2022-12-23T05:51:49.473Z,14.80
2022-12-23T05:57:11.402Z,16.60
2022-12-23T06:02:33.489Z,16.90
2022-12-23T06:07:55.584Z,16.30
2022-12-23T06:13:21.016Z,14.30
2022-12-23T06:18:42.837Z,17.20
2022-12-23T06:24:05.463Z,14.50
2022-12-23T06:29:27.597Z,14.70
2022-12-23T06:34:53.491Z,15.20
2022-12-23T06:40:15.369Z,15.70
2022-12-23T06:45:37.426Z,13.30
2022-12-23T06:50:59.126Z,15.10
2022-12-23T06:56:21.364Z,14.70
2022-12-23T07:01:45.177Z,17.50
2022-12-23T07:07:06.923Z,20.50
2022-12-23T07:12:28.747Z,21.40
2022-12-23T07:17:50.487Z,32.80
2022-12-23T07:23:12.502Z,24.90
2022-12-23T07:28:34.135Z,18.40
2022-12-23T07:33:56.064Z,18.80
2022-12-23T07:39:18.064Z,14.40
2022-12-23T07:44:40.022Z,15.60
2022-12-23T07:50:02.250Z,14.60
2022-12-23T07:55:24.282Z,16.40
2022-12-23T08:00:45.811Z,15.50
2022-12-23T08:06:14.430Z,14.50
2022-12-23T08:11:36.294Z,13.30
2022-12-23T08:16:58.174Z,16.00
2022-12-23T08:22:20.149Z,14.40
2022-12-23T08:27:41.889Z,13.80
2022-12-23T08:33:03.806Z,10.30
2022-12-23T08:38:25.739Z,11.30
2022-12-23T08:43:48.190Z,18.30
2022-12-23T08:49:11.000Z,23.00
2022-12-23T08:54:33.233Z,24.50
2022-12-23T08:59:55.060Z,17.60
2022-12-23T09:05:16.895Z,14.60
2022-12-23T09:10:44.437Z,14.70
2022-12-23T09:16:07.050Z,15.60
2022-12-23T09:21:29.099Z,14.40
2022-12-23T09:26:51.130Z,11.80
2022-12-23T09:32:13.259Z,16.50
2022-12-23T09:37:36.385Z,15.00
2022-12-23T09:43:07.053Z,18.60
2022-12-23T09:48:35.024Z,15.50
2022-12-23T09:54:17.548Z,16.00
2022-12-23T09:59:45.555Z,13.40
2022-12-23T10:05:19.728Z,12.20
2022-12-23T10:11:01.796Z,19.30
2022-12-23T10:16:26.723Z,21.00
2022-12-23T10:21:52.211Z,19.00
2022-12-23T10:27:36.031Z,18.80
2022-12-23T10:33:00.569Z,17.60
2022-12-23T10:38:31.519Z,23.90
2022-12-23T10:44:18.435Z,20.80
2022-12-23T10:49:54.822Z,15.80
2022-12-23T10:55:31.270Z,16.00
2022-12-23T11:00:58.833Z,15.10
2022-12-23T11:06:21.683Z,14.40
2022-12-23T11:11:59.068Z,14.60
2022-12-23T11:17:24.901Z,15.30
2022-12-23T11:23:06.207Z,16.10
2022-12-23T11:28:28.650Z,17.30
2022-12-23T11:34:02.011Z,14.60
2022-12-23T11:39:29.141Z,14.80
2022-12-23T11:44:53.719Z,14.40
2022-12-23T11:50:29.085Z,15.00
2022-12-23T11:56:07.136Z,14.10
2022-12-23T12:01:29.385Z,12.10
2022-12-23T12:06:56.275Z,13.80
2022-12-23T12:12:21.300Z,12.00
2022-12-23T12:17:47.554Z,10.70
2022-12-23T12:23:37.929Z,18.10
2022-12-23T12:29:25.660Z,13.70
2022-12-23T12:34:47.494Z,15.00
2022-12-23T12:40:18.449Z,17.00
2022-12-23T12:46:04.084Z,18.60
2022-12-23T12:51:39.673Z,18.30
2022-12-23T12:57:02.485Z,19.10
2022-12-23T13:02:31.343Z,19.80
2022-12-23T13:08:02.068Z,20.40
2022-12-23T13:13:46.189Z,21.50
2022-12-23T13:19:28.390Z,20.50
2022-12-23T13:25:08.587Z,14.80
2022-12-23T13:30:36.763Z,17.30
2022-12-23T13:36:13.572Z,18.30
2022-12-23T13:41:48.490Z,16.00
2022-12-23T13:47:19.052Z,13.60
2022-12-23T13:52:43.986Z,17.40
2022-12-23T13:58:11.942Z,16.50
2022-12-23T14:03:35.275Z,18.80
2022-12-23T14:08:57.404Z,19.00
2022-12-23T14:14:22.926Z,28.90
2022-12-23T14:20:02.854Z,25.20
2022-12-23T14:25:44.142Z,24.00
2022-12-23T14:31:06.307Z,20.10
2022-12-23T14:36:28.789Z,20.90
2022-12-23T14:41:53.436Z,24.90
2022-12-23T14:47:32.132Z,24.60
2022-12-23T14:53:02.363Z,23.90
2022-12-23T14:58:29.592Z,19.90
2022-12-23T15:03:59.076Z,26.20
2022-12-23T15:09:32.463Z,23.20
2022-12-23T15:14:58.002Z,22.20
2022-12-23T15:20:23.307Z,19.00
2022-12-23T15:25:46.884Z,16.80
2022-12-23T15:31:27.512Z,20.40
2022-12-23T15:36:54.551Z,20.90
2022-12-23T15:42:35.644Z,27.80
2022-12-23T15:47:57.748Z,27.00
2022-12-23T15:53:20.068Z,24.30
2022-12-23T15:58:44.120Z,23.80
2022-12-23T16:04:07.146Z,24.10
2022-12-23T16:09:36.105Z,23.20
2022-12-23T16:15:01.011Z,24.20
2022-12-23T16:20:26.885Z,22.20
2022-12-23T16:25:51.774Z,23.90
2022-12-23T16:31:16.910Z,22.40
2022-12-23T16:36:38.931Z,26.30
2022-12-23T16:42:00.821Z,29.90
2022-12-23T16:47:23.159Z,23.50
2022-12-23T16:52:44.777Z,23.30
2022-12-23T16:58:06.609Z,26.20
2022-12-23T17:03:28.639Z,24.90
2022-12-23T17:08:51.172Z,25.80
2022-12-23T17:14:19.117Z,28.70
2022-12-23T17:19:40.972Z,21.50
2022-12-23T17:25:04.543Z,25.50
2022-12-23T17:30:26.615Z,23.20
2022-12-23T17:35:48.550Z,22.90
2022-12-23T17:41:27.904Z,22.00
2022-12-23T17:46:49.764Z,26.50
2022-12-23T17:52:20.277Z,26.40
2022-12-23T17:57:42.250Z,27.00
2022-12-23T18:03:07.516Z,26.70
2022-12-23T18:08:29.323Z,22.00
2022-12-23T18:13:52.065Z,19.50
2022-12-23T18:19:18.295Z,23.20
2022-12-23T18:24:39.851Z,19.60
2022-12-23T18:30:01.732Z,21.50
2022-12-23T18:35:28.110Z,21.80
2022-12-23T18:40:53.946Z,20.90
2022-12-23T18:46:15.872Z,21.50
2022-12-23T18:51:37.932Z,25.40
2022-12-23T18:57:01.212Z,26.20
2022-12-23T19:02:23.128Z,24.50
2022-12-23T19:07:46.500Z,19.10
2022-12-23T19:13:09.338Z,19.80
2022-12-23T19:18:31.123Z,19.20
2022-12-23T19:23:53.156Z,23.90
2022-12-23T19:29:15.076Z,20.10
2022-12-23T19:34:36.875Z,18.70
2022-12-23T19:39:59.968Z,25.30
2022-12-23T19:45:21.681Z,17.10
2022-12-23T19:50:43.274Z,16.50
2022-12-23T19:56:06.609Z,17.70
2022-12-23T20:01:28.751Z,20.60
2022-12-23T20:06:51.435Z,18.20
2022-12-23T20:12:13.113Z,14.40
2022-12-23T20:17:35.099Z,16.40
2022-12-23T20:22:57.034Z,15.40
2022-12-23T20:28:19.613Z,17.20
2022-12-23T20:33:45.042Z,12.00
2022-12-23T20:39:06.975Z,12.80
2022-12-23T20:44:37.267Z,15.20
2022-12-23T20:49:59.717Z,15.10
2022-12-23T20:55:21.227Z,13.00
2022-12-23T21:00:42.970Z,16.30
2022-12-23T21:06:06.009Z,16.30
2022-12-23T21:11:29.641Z,16.70
2022-12-23T21:16:51.669Z,16.80
2022-12-23T21:22:13.340Z,15.70
2022-12-23T21:27:35.331Z,15.70
2022-12-23T21:33:00.376Z,17.60
2022-12-23T21:38:22.101Z,16.60
2022-12-23T21:43:44.342Z,18.30
2022-12-23T21:49:06.265Z,17.30
2022-12-23T21:54:28.012Z,24.20
2022-12-23T21:59:50.117Z,23.30
2022-12-23T22:05:12.042Z,18.70
2022-12-23T22:10:37.597Z,18.80
2022-12-23T22:15:59.340Z,17.10
2022-12-23T22:21:23.782Z,17.30
2022-12-23T22:26:45.639Z,20.20
2022-12-23T22:32:07.760Z,18.20
2022-12-23T22:37:29.444Z,27.40
2022-12-23T22:42:51.371Z,22.00
2022-12-23T22:48:13.708Z,32.20
2022-12-23T22:53:36.640Z,34.60
2022-12-23T22:58:58.890Z,36.60
2022-12-23T23:04:20.905Z,27.20
2022-12-23T23:09:42.827Z,31.00
2022-12-23T23:15:05.662Z,21.10
2022-12-23T23:20:27.786Z,17.60
2022-12-23T23:25:49.730Z,17.30
2022-12-23T23:36:54.143Z,17.80
2022-12-23T23:42:18.002Z,21.80
2022-12-23T23:47:40.013Z,17.40
2022-12-23T23:53:01.547Z,20.70
2022-12-23T23:58:23.507Z,15.70
